sensor_id;sensor_type;location;lat;lon;timestamp;P1;durP1;ratioP1;P2;durP2;ratioP2
49812;SDS011;35706;52.100;5.056;2022-10-31T00:00:39;5.03;;;0.93;;
49812;SDS011;35706;52.100;5.056;2022-10-31T00:01:40;4.50;;;1.10;;
49812;SDS011;35706;52.100;5.056;2022-10-31T00:02:40;4.75;;;1.35;;
49812;SDS011;35706;52.100;5.056;2022-10-31T00:03:41;2.85;;;1.00;;
49812;SDS011;35706;52.100;5.056;2022-10-31T00:04:41;7.22;;;1.70;;
49812;SDS011;35706;52.100;5.056;2022-10-31T00:05:48;6.90;;;1.33;;
49812;SDS011;35706;52.100;5.056;2022-10-31T00:06:49;4.20;;;1.20;;
49812;SDS011;35706;52.100;5.056;2022-10-31T00:07:51;2.95;;;0.90;;
49812;SDS011;35706;52.100;5.056;2022-10-31T00:08:53;3.47;;;1.08;;
49812;SDS011;35706;52.100;5.056;2022-10-31T00:10:01;5.10;;;1.10;;
49812;SDS011;35706;52.100;5.056;2022-10-31T00:11:01;3.65;;;1.55;;
49812;SDS011;35706;52.100;5.056;2022-10-31T00:12:01;2.65;;;1.35;;
49812;SDS011;35706;52.100;5.056;2022-10-31T00:13:02;4.60;;;1.50;;
49812;SDS011;35706;52.100;5.056;2022-10-31T00:14:02;8.50;;;1.58;;
49812;SDS011;35706;52.100;5.056;2022-10-31T00:15:02;7.75;;;1.77;;
49812;SDS011;35706;52.100;5.056;2022-10-31T00:16:03;4.80;;;1.40;;
49812;SDS011;35706;52.100;5.056;2022-10-31T00:17:04;6.43;;;1.33;;
49812;SDS011;35706;52.100;5.056;2022-10-31T00:18:05;11.80;;;1.50;;
49812;SDS011;35706;52.100;5.056;2022-10-31T00:19:06;6.03;;;1.35;;
49812;SDS011;35706;52.100;5.056;2022-10-31T00:20:08;4.65;;;1.10;;
49812;SDS011;35706;52.100;5.056;2022-10-31T00:21:08;6.35;;;1.63;;
49812;SDS011;35706;52.100;5.056;2022-10-31T00:22:09;6.22;;;1.20;;
49812;SDS011;35706;52.100;5.056;2022-10-31T00:23:09;6.60;;;1.70;;
49812;SDS011;35706;52.100;5.056;2022-10-31T00:24:10;6.85;;;1.63;;
49812;SDS011;35706;52.100;5.056;2022-10-31T00:25:11;4.93;;;1.85;;
49812;SDS011;35706;52.100;5.056;2022-10-31T00:26:11;5.88;;;1.48;;
49812;SDS011;35706;52.100;5.056;2022-10-31T00:27:12;2.13;;;1.50;;
49812;SDS011;35706;52.100;5.056;2022-10-31T00:28:12;5.32;;;1.40;;
49812;SDS011;35706;52.100;5.056;2022-10-31T00:29:12;5.53;;;1.83;;
49812;SDS011;35706;52.100;5.056;2022-10-31T00:30:12;3.95;;;1.30;;
49812;SDS011;35706;52.100;5.056;2022-10-31T00:31:13;3.50;;;1.77;;
49812;SDS011;35706;52.100;5.056;2022-10-31T00:32:13;4.97;;;1.73;;
49812;SDS011;35706;52.100;5.056;2022-10-31T00:33:14;6.05;;;2.35;;
49812;SDS011;35706;52.100;5.056;2022-10-31T00:34:14;4.30;;;1.45;;
49812;SDS011;35706;52.100;5.056;2022-10-31T00:35:14;5.88;;;1.67;;
49812;SDS011;35706;52.100;5.056;2022-10-31T00:36:16;5.28;;;1.88;;
49812;SDS011;35706;52.100;5.056;2022-10-31T00:37:18;4.32;;;1.33;;
49812;SDS011;35706;52.100;5.056;2022-10-31T00:38:18;3.75;;;1.38;;
49812;SDS011;35706;52.100;5.056;2022-10-31T00:39:19;6.00;;;1.90;;
49812;SDS011;35706;52.100;5.056;2022-10-31T00:40:19;4.43;;;1.65;;
49812;SDS011;35706;52.100;5.056;2022-10-31T00:41:19;7.18;;;2.10;;
49812;SDS011;35706;52.100;5.056;2022-10-31T00:42:19;3.47;;;1.70;;
49812;SDS011;35706;52.100;5.056;2022-10-31T00:43:20;4.95;;;1.98;;
49812;SDS011;35706;52.100;5.056;2022-10-31T00:44:20;5.43;;;1.90;;
49812;SDS011;35706;52.100;5.056;2022-10-31T00:45:20;5.72;;;1.95;;
49812;SDS011;35706;52.100;5.056;2022-10-31T00:46:20;3.72;;;2.35;;
49812;SDS011;35706;52.100;5.056;2022-10-31T00:47:21;3.58;;;1.65;;
49812;SDS011;35706;52.100;5.056;2022-10-31T00:48:21;4.93;;;1.90;;
49812;SDS011;35706;52.100;5.056;2022-10-31T00:49:21;6.93;;;1.83;;
49812;SDS011;35706;52.100;5.056;2022-10-31T00:50:21;7.07;;;1.83;;
49812;SDS011;35706;52.100;5.056;2022-10-31T00:51:22;6.97;;;2.03;;
49812;SDS011;35706;52.100;5.056;2022-10-31T00:52:22;4.70;;;1.83;;
49812;SDS011;35706;52.100;5.056;2022-10-31T00:53:22;5.78;;;1.70;;
49812;SDS011;35706;52.100;5.056;2022-10-31T00:54:23;3.15;;;1.17;;
49812;SDS011;35706;52.100;5.056;2022-10-31T00:55:23;10.43;;;1.52;;
49812;SDS011;35706;52.100;5.056;2022-10-31T00:56:23;19.13;;;2.30;;
49812;SDS011;35706;52.100;5.056;2022-10-31T00:57:24;4.07;;;1.95;;
49812;SDS011;35706;52.100;5.056;2022-10-31T00:58:24;2.92;;;1.55;;
49812;SDS011;35706;52.100;5.056;2022-10-31T00:59:24;7.47;;;2.10;;
49812;SDS011;35706;52.100;5.056;2022-10-31T01:00:25;6.72;;;1.83;;
49812;SDS011;35706;52.100;5.056;2022-10-31T01:01:25;6.95;;;2.03;;
49812;SDS011;35706;52.100;5.056;2022-10-31T01:02:25;3.50;;;1.52;;
49812;SDS011;35706;52.100;5.056;2022-10-31T01:03:27;4.05;;;1.50;;
49812;SDS011;35706;52.100;5.056;2022-10-31T01:04:28;6.68;;;2.25;;
49812;SDS011;35706;52.100;5.056;2022-10-31T01:05:29;6.85;;;1.58;;
49812;SDS011;35706;52.100;5.056;2022-10-31T01:06:29;5.72;;;1.42;;
49812;SDS011;35706;52.100;5.056;2022-10-31T01:07:29;3.50;;;1.63;;
49812;SDS011;35706;52.100;5.056;2022-10-31T01:08:30;5.10;;;1.77;;
49812;SDS011;35706;52.100;5.056;2022-10-31T01:09:30;6.00;;;2.00;;
49812;SDS011;35706;52.100;5.056;2022-10-31T01:10:30;6.80;;;1.98;;
49812;SDS011;35706;52.100;5.056;2022-10-31T01:11:30;6.28;;;1.50;;
49812;SDS011;35706;52.100;5.056;2022-10-31T01:12:37;6.43;;;1.95;;
49812;SDS011;35706;52.100;5.056;2022-10-31T01:13:39;8.05;;;1.42;;
49812;SDS011;35706;52.100;5.056;2022-10-31T01:14:43;7.18;;;2.08;;
49812;SDS011;35706;52.100;5.056;2022-10-31T01:15:44;5.20;;;2.38;;
49812;SDS011;35706;52.100;5.056;2022-10-31T01:16:44;6.45;;;2.13;;
49812;SDS011;35706;52.100;5.056;2022-10-31T01:17:45;4.45;;;1.42;;
49812;SDS011;35706;52.100;5.056;2022-10-31T01:18:45;12.32;;;2.00;;
49812;SDS011;35706;52.100;5.056;2022-10-31T01:19:46;4.43;;;2.08;;
49812;SDS011;35706;52.100;5.056;2022-10-31T01:20:46;5.30;;;1.85;;
49812;SDS011;35706;52.100;5.056;2022-10-31T01:21:46;3.42;;;1.50;;
49812;SDS011;35706;52.100;5.056;2022-10-31T01:22:46;4.82;;;1.92;;
49812;SDS011;35706;52.100;5.056;2022-10-31T01:23:47;4.30;;;1.67;;
49812;SDS011;35706;52.100;5.056;2022-10-31T01:24:47;7.97;;;1.70;;
49812;SDS011;35706;52.100;5.056;2022-10-31T01:25:48;3.50;;;1.65;;
49812;SDS011;35706;52.100;5.056;2022-10-31T01:26:48;7.90;;;1.65;;
49812;SDS011;35706;52.100;5.056;2022-10-31T01:27:48;3.60;;;1.83;;
49812;SDS011;35706;52.100;5.056;2022-10-31T01:28:50;5.13;;;1.60;;
49812;SDS011;35706;52.100;5.056;2022-10-31T01:29:52;10.60;;;2.05;;
49812;SDS011;35706;52.100;5.056;2022-10-31T01:30:52;7.00;;;1.52;;
49812;SDS011;35706;52.100;5.056;2022-10-31T01:31:52;8.00;;;2.00;;
49812;SDS011;35706;52.100;5.056;2022-10-31T01:32:53;7.40;;;1.98;;
49812;SDS011;35706;52.100;5.056;2022-10-31T01:33:53;5.00;;;1.98;;
49812;SDS011;35706;52.100;5.056;2022-10-31T01:34:54;4.45;;;1.73;;
49812;SDS011;35706;52.100;5.056;2022-10-31T01:35:55;8.43;;;1.75;;
49812;SDS011;35706;52.100;5.056;2022-10-31T01:36:55;3.83;;;2.15;;
49812;SDS011;35706;52.100;5.056;2022-10-31T01:37:55;2.92;;;1.65;;
49812;SDS011;35706;52.100;5.056;2022-10-31T01:38:57;4.00;;;2.00;;
49812;SDS011;35706;52.100;5.056;2022-10-31T01:39:59;5.90;;;1.80;;
49812;SDS011;35706;52.100;5.056;2022-10-31T01:40:59;5.53;;;1.83;;
49812;SDS011;35706;52.100;5.056;2022-10-31T01:41:59;4.38;;;1.52;;
49812;SDS011;35706;52.100;5.056;2022-10-31T01:43:00;2.88;;;1.60;;
49812;SDS011;35706;52.100;5.056;2022-10-31T01:44:01;3.78;;;1.95;;
49812;SDS011;35706;52.100;5.056;2022-10-31T01:45:22;6.72;;;2.42;;
49812;SDS011;35706;52.100;5.056;2022-10-31T01:46:24;5.50;;;2.13;;
49812;SDS011;35706;52.100;5.056;2022-10-31T01:47:32;4.88;;;1.95;;
49812;SDS011;35706;52.100;5.056;2022-10-31T01:48:37;3.60;;;2.22;;
49812;SDS011;35706;52.100;5.056;2022-10-31T01:49:45;5.00;;;2.03;;
49812;SDS011;35706;52.100;5.056;2022-10-31T01:50:48;10.43;;;2.03;;
49812;SDS011;35706;52.100;5.056;2022-10-31T01:51:55;3.95;;;2.03;;
49812;SDS011;35706;52.100;5.056;2022-10-31T01:53:00;5.28;;;1.80;;
49812;SDS011;35706;52.100;5.056;2022-10-31T01:54:04;2.30;;;1.65;;
49812;SDS011;35706;52.100;5.056;2022-10-31T01:55:18;4.63;;;1.70;;
49812;SDS011;35706;52.100;5.056;2022-10-31T01:56:23;5.53;;;1.67;;
49812;SDS011;35706;52.100;5.056;2022-10-31T01:57:24;6.20;;;2.28;;
49812;SDS011;35706;52.100;5.056;2022-10-31T01:58:25;6.20;;;2.83;;
49812;SDS011;35706;52.100;5.056;2022-10-31T01:59:30;5.40;;;2.00;;
49812;SDS011;35706;52.100;5.056;2022-10-31T02:00:35;8.70;;;2.30;;
49812;SDS011;35706;52.100;5.056;2022-10-31T02:01:35;4.65;;;2.47;;
49812;SDS011;35706;52.100;5.056;2022-10-31T02:02:37;5.93;;;2.15;;
49812;SDS011;35706;52.100;5.056;2022-10-31T02:03:37;6.57;;;1.85;;
49812;SDS011;35706;52.100;5.056;2022-10-31T02:04:38;3.28;;;2.05;;
49812;SDS011;35706;52.100;5.056;2022-10-31T02:05:39;4.85;;;2.13;;
49812;SDS011;35706;52.100;5.056;2022-10-31T02:06:49;5.78;;;2.00;;
49812;SDS011;35706;52.100;5.056;2022-10-31T02:08:08;6.57;;;1.90;;
49812;SDS011;35706;52.100;5.056;2022-10-31T02:09:11;32.40;;;3.05;;
49812;SDS011;35706;52.100;5.056;2022-10-31T02:10:13;7.72;;;2.30;;
49812;SDS011;35706;52.100;5.056;2022-10-31T02:11:14;5.18;;;2.08;;
49812;SDS011;35706;52.100;5.056;2022-10-31T02:12:14;7.68;;;2.53;;
49812;SDS011;35706;52.100;5.056;2022-10-31T02:13:16;3.78;;;1.88;;
49812;SDS011;35706;52.100;5.056;2022-10-31T02:14:17;5.13;;;2.30;;
49812;SDS011;35706;52.100;5.056;2022-10-31T02:15:18;5.80;;;2.17;;
49812;SDS011;35706;52.100;5.056;2022-10-31T02:16:18;4.28;;;1.73;;
49812;SDS011;35706;52.100;5.056;2022-10-31T02:17:18;7.00;;;3.20;;
49812;SDS011;35706;52.100;5.056;2022-10-31T02:18:19;5.63;;;2.50;;
49812;SDS011;35706;52.100;5.056;2022-10-31T02:19:31;5.03;;;2.67;;
49812;SDS011;35706;52.100;5.056;2022-10-31T02:20:58;6.57;;;2.38;;
49812;SDS011;35706;52.100;5.056;2022-10-31T02:23:33;5.88;;;2.25;;
49812;SDS011;35706;52.100;5.056;2022-10-31T02:25:02;2.90;;;2.10;;
49812;SDS011;35706;52.100;5.056;2022-10-31T02:30:17;5.20;;;2.10;;
49812;SDS011;35706;52.100;5.056;2022-10-31T02:31:23;3.47;;;2.10;;
49812;SDS011;35706;52.100;5.056;2022-10-31T02:33:22;6.18;;;2.92;;
49812;SDS011;35706;52.100;5.056;2022-10-31T02:34:37;5.50;;;2.22;;
49812;SDS011;35706;52.100;5.056;2022-10-31T02:35:58;6.60;;;2.33;;
49812;SDS011;35706;52.100;5.056;2022-10-31T02:40:21;7.03;;;2.80;;
49812;SDS011;35706;52.100;5.056;2022-10-31T02:41:46;7.55;;;2.50;;
49812;SDS011;35706;52.100;5.056;2022-10-31T02:45:17;7.20;;;2.75;;
49812;SDS011;35706;52.100;5.056;2022-10-31T02:47:49;6.60;;;2.67;;
49812;SDS011;35706;52.100;5.056;2022-10-31T02:48:54;8.35;;;2.78;;
49812;SDS011;35706;52.100;5.056;2022-10-31T02:50:02;8.88;;;2.75;;
49812;SDS011;35706;52.100;5.056;2022-10-31T02:51:08;4.32;;;2.85;;
49812;SDS011;35706;52.100;5.056;2022-10-31T02:52:20;6.65;;;2.78;;
49812;SDS011;35706;52.100;5.056;2022-10-31T02:53:24;7.63;;;3.38;;
49812;SDS011;35706;52.100;5.056;2022-10-31T02:54:25;8.15;;;2.78;;
49812;SDS011;35706;52.100;5.056;2022-10-31T02:56:27;7.20;;;3.10;;
49812;SDS011;35706;52.100;5.056;2022-10-31T02:57:28;10.75;;;3.15;;
49812;SDS011;35706;52.100;5.056;2022-10-31T02:58:35;5.25;;;2.90;;
49812;SDS011;35706;52.100;5.056;2022-10-31T02:59:39;7.75;;;3.47;;
49812;SDS011;35706;52.100;5.056;2022-10-31T03:06:09;6.05;;;3.30;;
49812;SDS011;35706;52.100;5.056;2022-10-31T03:07:28;11.77;;;4.00;;
49812;SDS011;35706;52.100;5.056;2022-10-31T03:08:57;9.45;;;3.70;;
49812;SDS011;35706;52.100;5.056;2022-10-31T03:10:16;6.80;;;3.58;;
49812;SDS011;35706;52.100;5.056;2022-10-31T03:11:27;8.48;;;4.85;;
49812;SDS011;35706;52.100;5.056;2022-10-31T03:12:38;4.60;;;3.63;;
49812;SDS011;35706;52.100;5.056;2022-10-31T03:13:46;12.15;;;4.50;;
49812;SDS011;35706;52.100;5.056;2022-10-31T03:16:50;7.28;;;3.72;;
49812;SDS011;35706;52.100;5.056;2022-10-31T03:17:59;8.60;;;3.65;;
49812;SDS011;35706;52.100;5.056;2022-10-31T03:19:09;5.10;;;3.47;;
49812;SDS011;35706;52.100;5.056;2022-10-31T03:20:12;6.13;;;4.00;;
49812;SDS011;35706;52.100;5.056;2022-10-31T03:21:16;10.32;;;4.07;;
49812;SDS011;35706;52.100;5.056;2022-10-31T03:22:28;11.38;;;4.18;;
49812;SDS011;35706;52.100;5.056;2022-10-31T03:23:31;12.95;;;4.50;;
49812;SDS011;35706;52.100;5.056;2022-10-31T03:24:34;8.57;;;3.90;;
49812;SDS011;35706;52.100;5.056;2022-10-31T03:25:38;7.03;;;4.47;;
49812;SDS011;35706;52.100;5.056;2022-10-31T03:26:41;8.13;;;4.32;;
49812;SDS011;35706;52.100;5.056;2022-10-31T03:27:46;7.25;;;4.03;;
49812;SDS011;35706;52.100;5.056;2022-10-31T03:28:53;6.03;;;3.78;;
49812;SDS011;35706;52.100;5.056;2022-10-31T03:30:02;7.80;;;4.60;;
49812;SDS011;35706;52.100;5.056;2022-10-31T03:31:04;6.93;;;4.57;;
49812;SDS011;35706;52.100;5.056;2022-10-31T03:32:14;7.68;;;4.65;;
49812;SDS011;35706;52.100;5.056;2022-10-31T03:33:20;10.85;;;5.57;;
49812;SDS011;35706;52.100;5.056;2022-10-31T03:34:26;6.60;;;4.15;;
49812;SDS011;35706;52.100;5.056;2022-10-31T03:35:29;9.18;;;5.07;;
49812;SDS011;35706;52.100;5.056;2022-10-31T03:36:33;9.00;;;5.25;;
49812;SDS011;35706;52.100;5.056;2022-10-31T03:37:37;9.80;;;5.43;;
49812;SDS011;35706;52.100;5.056;2022-10-31T03:38:40;11.25;;;4.65;;
49812;SDS011;35706;52.100;5.056;2022-10-31T03:39:42;6.80;;;5.05;;
49812;SDS011;35706;52.100;5.056;2022-10-31T03:40:45;11.25;;;4.72;;
49812;SDS011;35706;52.100;5.056;2022-10-31T03:41:53;8.00;;;5.00;;
49812;SDS011;35706;52.100;5.056;2022-10-31T03:43:00;9.82;;;4.85;;
49812;SDS011;35706;52.100;5.056;2022-10-31T03:44:09;11.85;;;5.13;;
49812;SDS011;35706;52.100;5.056;2022-10-31T03:45:15;11.68;;;5.45;;
49812;SDS011;35706;52.100;5.056;2022-10-31T03:46:21;11.57;;;5.25;;
49812;SDS011;35706;52.100;5.056;2022-10-31T03:47:21;14.15;;;5.57;;
49812;SDS011;35706;52.100;5.056;2022-10-31T03:48:22;10.23;;;5.20;;
49812;SDS011;35706;52.100;5.056;2022-10-31T03:49:23;10.32;;;5.57;;
49812;SDS011;35706;52.100;5.056;2022-10-31T03:50:24;10.65;;;6.53;;
49812;SDS011;35706;52.100;5.056;2022-10-31T03:51:53;10.82;;;6.85;;
49812;SDS011;35706;52.100;5.056;2022-10-31T03:52:58;11.23;;;6.03;;
49812;SDS011;35706;52.100;5.056;2022-10-31T03:55:27;10.40;;;6.35;;
49812;SDS011;35706;52.100;5.056;2022-10-31T03:56:36;13.80;;;5.90;;
49812;SDS011;35706;52.100;5.056;2022-10-31T03:57:52;9.75;;;6.32;;
49812;SDS011;35706;52.100;5.056;2022-10-31T03:58:59;12.45;;;7.15;;
49812;SDS011;35706;52.100;5.056;2022-10-31T04:01:08;11.18;;;6.72;;
49812;SDS011;35706;52.100;5.056;2022-10-31T04:02:12;11.48;;;6.80;;
49812;SDS011;35706;52.100;5.056;2022-10-31T04:03:21;13.20;;;7.10;;
49812;SDS011;35706;52.100;5.056;2022-10-31T04:04:26;13.40;;;7.72;;
49812;SDS011;35706;52.100;5.056;2022-10-31T04:05:29;11.35;;;7.25;;
49812;SDS011;35706;52.100;5.056;2022-10-31T04:06:32;13.52;;;7.63;;
49812;SDS011;35706;52.100;5.056;2022-10-31T04:07:40;10.88;;;7.78;;
49812;SDS011;35706;52.100;5.056;2022-10-31T04:09:02;15.85;;;7.38;;
49812;SDS011;35706;52.100;5.056;2022-10-31T04:10:06;11.85;;;6.78;;
49812;SDS011;35706;52.100;5.056;2022-10-31T04:11:10;8.10;;;6.38;;
49812;SDS011;35706;52.100;5.056;2022-10-31T04:12:14;9.20;;;6.70;;
49812;SDS011;35706;52.100;5.056;2022-10-31T04:13:17;11.57;;;6.70;;
49812;SDS011;35706;52.100;5.056;2022-10-31T04:14:23;14.77;;;7.63;;
49812;SDS011;35706;52.100;5.056;2022-10-31T04:15:26;14.25;;;7.65;;
49812;SDS011;35706;52.100;5.056;2022-10-31T04:16:28;16.95;;;7.38;;
49812;SDS011;35706;52.100;5.056;2022-10-31T04:17:29;16.42;;;7.60;;
49812;SDS011;35706;52.100;5.056;2022-10-31T04:18:33;14.43;;;6.70;;
49812;SDS011;35706;52.100;5.056;2022-10-31T04:19:33;13.30;;;7.05;;
49812;SDS011;35706;52.100;5.056;2022-10-31T04:20:34;15.25;;;8.05;;
49812;SDS011;35706;52.100;5.056;2022-10-31T04:21:36;13.60;;;7.95;;
49812;SDS011;35706;52.100;5.056;2022-10-31T04:22:37;12.02;;;7.50;;
49812;SDS011;35706;52.100;5.056;2022-10-31T04:23:37;16.67;;;7.70;;
49812;SDS011;35706;52.100;5.056;2022-10-31T04:24:38;13.88;;;7.57;;
49812;SDS011;35706;52.100;5.056;2022-10-31T04:25:40;17.65;;;7.38;;
49812;SDS011;35706;52.100;5.056;2022-10-31T04:26:40;12.88;;;8.15;;
49812;SDS011;35706;52.100;5.056;2022-10-31T04:27:40;14.05;;;9.02;;
49812;SDS011;35706;52.100;5.056;2022-10-31T04:28:40;12.15;;;8.32;;
49812;SDS011;35706;52.100;5.056;2022-10-31T04:29:41;13.98;;;8.25;;
49812;SDS011;35706;52.100;5.056;2022-10-31T04:30:41;13.98;;;8.10;;
49812;SDS011;35706;52.100;5.056;2022-10-31T04:31:41;14.68;;;8.35;;
49812;SDS011;35706;52.100;5.056;2022-10-31T04:32:41;17.63;;;8.88;;
49812;SDS011;35706;52.100;5.056;2022-10-31T04:33:42;11.43;;;8.65;;
49812;SDS011;35706;52.100;5.056;2022-10-31T04:34:42;13.45;;;7.88;;
49812;SDS011;35706;52.100;5.056;2022-10-31T04:35:43;13.57;;;7.95;;
49812;SDS011;35706;52.100;5.056;2022-10-31T04:36:43;16.70;;;8.77;;
49812;SDS011;35706;52.100;5.056;2022-10-31T04:37:43;17.55;;;8.85;;
49812;SDS011;35706;52.100;5.056;2022-10-31T04:38:44;13.63;;;7.90;;
49812;SDS011;35706;52.100;5.056;2022-10-31T04:39:44;15.75;;;9.20;;
49812;SDS011;35706;52.100;5.056;2022-10-31T04:40:44;13.43;;;7.95;;
49812;SDS011;35706;52.100;5.056;2022-10-31T04:41:45;13.13;;;9.27;;
49812;SDS011;35706;52.100;5.056;2022-10-31T04:42:45;14.73;;;8.88;;
49812;SDS011;35706;52.100;5.056;2022-10-31T04:43:45;11.18;;;7.82;;
49812;SDS011;35706;52.100;5.056;2022-10-31T04:44:46;17.08;;;8.05;;
49812;SDS011;35706;52.100;5.056;2022-10-31T04:45:46;16.60;;;9.38;;
49812;SDS011;35706;52.100;5.056;2022-10-31T04:46:46;15.30;;;8.52;;
49812;SDS011;35706;52.100;5.056;2022-10-31T04:47:47;15.02;;;8.73;;
49812;SDS011;35706;52.100;5.056;2022-10-31T04:48:47;16.13;;;9.07;;
49812;SDS011;35706;52.100;5.056;2022-10-31T04:49:48;16.13;;;8.95;;
49812;SDS011;35706;52.100;5.056;2022-10-31T04:50:48;16.73;;;9.52;;
49812;SDS011;35706;52.100;5.056;2022-10-31T04:51:48;13.27;;;8.82;;
49812;SDS011;35706;52.100;5.056;2022-10-31T04:52:49;18.80;;;9.20;;
49812;SDS011;35706;52.100;5.056;2022-10-31T04:53:49;16.30;;;9.05;;
49812;SDS011;35706;52.100;5.056;2022-10-31T04:54:49;13.88;;;8.68;;
49812;SDS011;35706;52.100;5.056;2022-10-31T04:55:49;17.08;;;9.00;;
49812;SDS011;35706;52.100;5.056;2022-10-31T04:56:50;14.70;;;8.27;;
49812;SDS011;35706;52.100;5.056;2022-10-31T04:57:50;12.40;;;8.90;;
49812;SDS011;35706;52.100;5.056;2022-10-31T04:58:50;18.45;;;8.63;;
49812;SDS011;35706;52.100;5.056;2022-10-31T04:59:51;13.07;;;8.57;;
49812;SDS011;35706;52.100;5.056;2022-10-31T05:00:52;14.23;;;8.10;;
49812;SDS011;35706;52.100;5.056;2022-10-31T05:01:53;14.05;;;8.30;;
49812;SDS011;35706;52.100;5.056;2022-10-31T05:02:54;13.73;;;8.93;;
49812;SDS011;35706;52.100;5.056;2022-10-31T05:03:56;20.67;;;9.52;;
49812;SDS011;35706;52.100;5.056;2022-10-31T05:04:56;16.58;;;8.80;;
49812;SDS011;35706;52.100;5.056;2022-10-31T05:05:56;16.30;;;8.98;;
49812;SDS011;35706;52.100;5.056;2022-10-31T05:06:57;12.70;;;8.43;;
49812;SDS011;35706;52.100;5.056;2022-10-31T05:07:57;14.20;;;8.30;;
49812;SDS011;35706;52.100;5.056;2022-10-31T05:08:57;12.20;;;7.78;;
49812;SDS011;35706;52.100;5.056;2022-10-31T05:09:57;13.13;;;7.68;;
49812;SDS011;35706;52.100;5.056;2022-10-31T05:11:01;14.88;;;8.25;;
49812;SDS011;35706;52.100;5.056;2022-10-31T05:12:02;13.13;;;8.63;;
49812;SDS011;35706;52.100;5.056;2022-10-31T05:13:03;14.20;;;8.10;;
49812;SDS011;35706;52.100;5.056;2022-10-31T05:14:04;10.77;;;7.80;;
49812;SDS011;35706;52.100;5.056;2022-10-31T05:15:04;12.43;;;8.32;;
49812;SDS011;35706;52.100;5.056;2022-10-31T05:16:05;16.10;;;8.27;;
49812;SDS011;35706;52.100;5.056;2022-10-31T05:17:06;15.05;;;8.15;;
49812;SDS011;35706;52.100;5.056;2022-10-31T05:18:06;15.43;;;8.50;;
49812;SDS011;35706;52.100;5.056;2022-10-31T05:19:07;14.88;;;8.25;;
49812;SDS011;35706;52.100;5.056;2022-10-31T05:20:07;16.77;;;8.77;;
49812;SDS011;35706;52.100;5.056;2022-10-31T05:21:08;10.02;;;7.43;;
49812;SDS011;35706;52.100;5.056;2022-10-31T05:22:08;16.33;;;9.30;;
49812;SDS011;35706;52.100;5.056;2022-10-31T05:23:08;14.93;;;8.80;;
49812;SDS011;35706;52.100;5.056;2022-10-31T05:24:08;13.65;;;8.10;;
49812;SDS011;35706;52.100;5.056;2022-10-31T05:25:09;16.67;;;9.88;;
49812;SDS011;35706;52.100;5.056;2022-10-31T05:26:09;12.18;;;8.45;;
49812;SDS011;35706;52.100;5.056;2022-10-31T05:27:09;15.52;;;9.00;;
49812;SDS011;35706;52.100;5.056;2022-10-31T05:28:10;13.75;;;8.80;;
49812;SDS011;35706;52.100;5.056;2022-10-31T05:29:10;13.73;;;8.43;;
49812;SDS011;35706;52.100;5.056;2022-10-31T05:30:11;14.00;;;8.07;;
49812;SDS011;35706;52.100;5.056;2022-10-31T05:31:13;12.40;;;8.82;;
49812;SDS011;35706;52.100;5.056;2022-10-31T05:32:13;12.55;;;8.52;;
49812;SDS011;35706;52.100;5.056;2022-10-31T05:33:13;14.23;;;8.15;;
49812;SDS011;35706;52.100;5.056;2022-10-31T05:34:13;15.68;;;9.18;;
49812;SDS011;35706;52.100;5.056;2022-10-31T05:35:15;16.20;;;8.60;;
49812;SDS011;35706;52.100;5.056;2022-10-31T05:36:17;12.90;;;8.18;;
49812;SDS011;35706;52.100;5.056;2022-10-31T05:37:17;16.08;;;8.27;;
49812;SDS011;35706;52.100;5.056;2022-10-31T05:38:17;15.05;;;8.73;;
49812;SDS011;35706;52.100;5.056;2022-10-31T05:39:18;15.77;;;8.05;;
49812;SDS011;35706;52.100;5.056;2022-10-31T05:40:18;12.73;;;8.70;;
49812;SDS011;35706;52.100;5.056;2022-10-31T05:41:20;11.65;;;7.75;;
49812;SDS011;35706;52.100;5.056;2022-10-31T05:42:20;20.20;;;8.88;;
49812;SDS011;35706;52.100;5.056;2022-10-31T05:43:20;15.68;;;8.35;;
49812;SDS011;35706;52.100;5.056;2022-10-31T05:44:21;13.20;;;7.55;;
49812;SDS011;35706;52.100;5.056;2022-10-31T05:45:21;20.02;;;8.55;;
49812;SDS011;35706;52.100;5.056;2022-10-31T05:46:22;19.42;;;8.50;;
49812;SDS011;35706;52.100;5.056;2022-10-31T05:47:22;18.73;;;8.70;;
49812;SDS011;35706;52.100;5.056;2022-10-31T05:48:23;12.25;;;8.20;;
49812;SDS011;35706;52.100;5.056;2022-10-31T05:49:23;16.08;;;8.00;;
49812;SDS011;35706;52.100;5.056;2022-10-31T05:50:24;16.05;;;9.07;;
49812;SDS011;35706;52.100;5.056;2022-10-31T05:51:26;12.82;;;8.63;;
49812;SDS011;35706;52.100;5.056;2022-10-31T05:52:26;15.77;;;9.32;;
49812;SDS011;35706;52.100;5.056;2022-10-31T05:53:27;12.63;;;7.95;;
49812;SDS011;35706;52.100;5.056;2022-10-31T05:54:27;9.45;;;8.30;;
49812;SDS011;35706;52.100;5.056;2022-10-31T05:55:27;13.70;;;8.45;;
49812;SDS011;35706;52.100;5.056;2022-10-31T05:56:28;13.20;;;8.93;;
49812;SDS011;35706;52.100;5.056;2022-10-31T05:57:28;15.20;;;8.93;;
49812;SDS011;35706;52.100;5.056;2022-10-31T05:58:29;11.90;;;8.30;;
49812;SDS011;35706;52.100;5.056;2022-10-31T05:59:29;15.77;;;9.07;;
49812;SDS011;35706;52.100;5.056;2022-10-31T06:00:29;14.93;;;8.65;;
49812;SDS011;35706;52.100;5.056;2022-10-31T06:01:30;11.82;;;8.52;;
49812;SDS011;35706;52.100;5.056;2022-10-31T06:02:30;11.57;;;8.70;;
49812;SDS011;35706;52.100;5.056;2022-10-31T06:03:34;13.07;;;8.02;;
49812;SDS011;35706;52.100;5.056;2022-10-31T06:04:34;14.65;;;9.45;;
49812;SDS011;35706;52.100;5.056;2022-10-31T06:05:34;13.63;;;8.43;;
49812;SDS011;35706;52.100;5.056;2022-10-31T06:06:35;16.23;;;9.38;;
49812;SDS011;35706;52.100;5.056;2022-10-31T06:07:35;14.32;;;8.77;;
49812;SDS011;35706;52.100;5.056;2022-10-31T06:08:36;17.30;;;9.60;;
49812;SDS011;35706;52.100;5.056;2022-10-31T06:09:37;17.25;;;9.80;;
49812;SDS011;35706;52.100;5.056;2022-10-31T06:10:37;13.15;;;9.48;;
49812;SDS011;35706;52.100;5.056;2022-10-31T06:11:37;16.02;;;9.27;;
49812;SDS011;35706;52.100;5.056;2022-10-31T06:12:37;14.13;;;9.15;;
49812;SDS011;35706;52.100;5.056;2022-10-31T06:13:38;14.85;;;9.55;;
49812;SDS011;35706;52.100;5.056;2022-10-31T06:14:38;15.13;;;8.50;;
49812;SDS011;35706;52.100;5.056;2022-10-31T06:15:38;15.25;;;9.15;;
49812;SDS011;35706;52.100;5.056;2022-10-31T06:16:39;17.30;;;8.75;;
49812;SDS011;35706;52.100;5.056;2022-10-31T06:17:39;13.18;;;8.98;;
49812;SDS011;35706;52.100;5.056;2022-10-31T06:18:39;13.88;;;8.38;;
49812;SDS011;35706;52.100;5.056;2022-10-31T06:19:39;14.70;;;9.55;;
49812;SDS011;35706;52.100;5.056;2022-10-31T06:20:40;14.52;;;9.00;;
49812;SDS011;35706;52.100;5.056;2022-10-31T06:21:40;16.58;;;9.80;;
49812;SDS011;35706;52.100;5.056;2022-10-31T06:22:40;15.65;;;9.70;;
49812;SDS011;35706;52.100;5.056;2022-10-31T06:23:40;16.02;;;9.35;;
49812;SDS011;35706;52.100;5.056;2022-10-31T06:24:41;13.13;;;8.60;;
49812;SDS011;35706;52.100;5.056;2022-10-31T06:25:41;11.32;;;8.27;;
49812;SDS011;35706;52.100;5.056;2022-10-31T06:26:41;13.88;;;8.82;;
49812;SDS011;35706;52.100;5.056;2022-10-31T06:27:42;14.75;;;8.45;;
49812;SDS011;35706;52.100;5.056;2022-10-31T06:28:42;15.60;;;8.70;;
49812;SDS011;35706;52.100;5.056;2022-10-31T06:29:42;12.98;;;8.35;;
49812;SDS011;35706;52.100;5.056;2022-10-31T06:30:42;13.95;;;8.93;;
49812;SDS011;35706;52.100;5.056;2022-10-31T06:31:43;15.57;;;9.32;;
49812;SDS011;35706;52.100;5.056;2022-10-31T06:32:43;19.10;;;9.23;;
49812;SDS011;35706;52.100;5.056;2022-10-31T06:33:43;15.18;;;9.10;;
49812;SDS011;35706;52.100;5.056;2022-10-31T06:34:44;15.82;;;8.05;;
49812;SDS011;35706;52.100;5.056;2022-10-31T06:35:45;20.25;;;7.95;;
49812;SDS011;35706;52.100;5.056;2022-10-31T06:36:46;15.23;;;9.35;;
49812;SDS011;35706;52.100;5.056;2022-10-31T06:37:51;17.90;;;11.25;;
49812;SDS011;35706;52.100;5.056;2022-10-31T06:38:52;23.52;;;11.77;;